Time;durP1;ratioP1;P1;durP2;ratioP2;P2;SDS_P1;SDS_P2;PMS_P1;PMS_P2;Temp;Humidity;BMP_temperature;BMP_pressure;BME280_temperature;BME280_humidity;BME280_pressure;Samples;Min_cycle;Max_cycle;Signal;HPM_P1;HPM_P2
2022/03/11 00:00:34;;;;;;;36.80;21.95;;;;;;;5.02;61.73;99602.66;5034816;28;20381;-77
2022/03/11 00:02:59;;;;;;;36.97;21.20;;;;;;;4.98;61.86;99594.28;5040361;28;20392;-77
2022/03/11 00:05:25;;;;;;;30.30;19.27;;;;;;;4.84;62.05;99575.88;5032856;28;20094;-77
2022/03/11 00:07:51;;;;;;;31.73;19.42;;;;;;;4.92;61.90;99583.66;5053505;28;20047;-77
2022/03/11 00:10:16;;;;;;;37.47;21.30;;;;;;;4.95;61.75;99591.22;5053117;28;20480;-77
2022/03/11 00:12:42;;;;;;;35.50;21.48;;;;;;;4.88;61.79;99579.78;5047734;28;20412;-77
2022/03/11 00:15:08;;;;;;;37.55;22.02;;;;;;;4.88;61.44;99588.53;5031124;28;20027;-77
2022/03/11 00:17:34;;;;;;;37.92;20.60;;;;;;;4.92;61.90;99594.22;5049940;28;20035;-77
2022/03/11 00:20:00;;;;;;;35.40;22.33;;;;;;;4.84;61.75;99584.63;5048818;28;20066;-77
2022/03/11 00:22:25;;;;;;;33.70;19.80;;;;;;;4.73;61.57;99569.31;5051088;28;20033;-77
2022/03/11 00:24:51;;;;;;;33.70;21.10;;;;;;;4.79;61.66;99591.50;5032326;28;20400;-77
2022/03/11 00:27:16;;;;;;;35.38;20.10;;;;;;;4.78;61.67;99590.72;5031775;28;20049;-77
2022/03/11 00:29:41;;;;;;;38.17;20.83;;;;;;;4.67;61.79;99577.19;5046146;28;20566;-77
2022/03/11 00:32:07;;;;;;;35.53;21.30;;;;;;;4.77;61.80;99596.16;5048573;28;20033;-77
2022/03/11 00:34:33;;;;;;;37.58;21.30;;;;;;;4.75;61.96;99603.47;5051630;28;20500;-77
2022/03/11 00:36:58;;;;;;;42.83;21.38;;;;;;;4.69;61.51;99591.03;5049814;28;20056;-77
2022/03/11 00:39:24;;;;;;;34.83;19.75;;;;;;;4.65;61.76;99595.06;5017167;28;20086;-77
2022/03/11 00:41:49;;;;;;;34.28;20.65;;;;;;;4.68;61.95;99594.69;5046519;28;20040;-78
2022/03/11 00:44:15;;;;;;;39.35;21.55;;;;;;;4.59;61.92;99587.91;5053461;28;20044;-77
2022/03/11 00:46:41;;;;;;;34.78;19.80;;;;;;;4.63;61.73;99597.09;5035252;28;20491;-77
2022/03/11 00:49:06;;;;;;;36.47;19.88;;;;;;;4.63;61.77;99599.75;5034391;28;20385;-78
2022/03/11 00:51:31;;;;;;;29.58;18.52;;;;;;;4.60;61.84;99605.41;5049120;28;20161;-77
2022/03/11 00:53:56;;;;;;;38.40;22.45;;;;;;;4.60;61.60;99603.59;5050877;28;20024;-78
2022/03/11 00:56:23;;;;;;;32.55;20.67;;;;;;;4.52;61.62;99599.25;5050455;28;20078;-78
2022/03/11 00:58:48;;;;;;;29.73;19.17;;;;;;;4.53;61.52;99600.06;5034800;28;20017;-77
2022/03/11 01:01:14;;;;;;;35.25;20.00;;;;;;;4.42;61.81;99585.53;5034156;28;20032;-77
2022/03/11 01:03:39;;;;;;;34.55;21.90;;;;;;;4.41;61.60;99575.97;5033899;28;20461;-77
2022/03/11 01:06:04;;;;;;;36.47;19.20;;;;;;;4.36;61.88;99570.47;5047396;28;20633;-76
2022/03/11 01:08:29;;;;;;;35.45;21.05;;;;;;;4.44;61.89;99587.97;5048358;28;20029;-76
2022/03/11 01:10:55;;;;;;;33.03;19.65;;;;;;;4.33;61.91;99575.28;5047362;28;20358;-76
2022/03/11 01:13:20;;;;;;;33.72;19.90;;;;;;;4.38;61.84;99586.94;5049176;28;20024;-76
2022/03/11 01:15:45;;;;;;;32.90;21.08;;;;;;;4.38;61.77;99583.47;5029332;28;20133;-76
2022/03/11 01:18:10;;;;;;;36.70;20.52;;;;;;;4.36;61.82;99575.75;5050048;28;20553;-76
2022/03/11 01:20:36;;;;;;;37.70;20.38;;;;;;;4.32;61.41;99578.97;5047222;28;20021;-76
2022/03/11 01:23:01;;;;;;;35.67;21.00;;;;;;;4.30;62.11;99580.97;5047978;28;20029;-76
2022/03/11 01:25:26;;;;;;;35.80;20.38;;;;;;;4.28;61.56;99575.84;5048402;28;20043;-77
2022/03/11 01:27:51;;;;;;;37.50;20.67;;;;;;;4.25;61.59;99570.97;5046775;28;20546;-76
2022/03/11 01:30:17;;;;;;;39.28;22.15;;;;;;;4.17;61.72;99568.44;5048803;28;20037;-76
2022/03/11 01:32:43;;;;;;;38.80;21.02;;;;;;;4.17;61.82;99573.72;5048176;28;20033;-76
2022/03/11 01:35:10;;;;;;;40.67;22.15;;;;;;;4.18;62.05;99572.72;5047448;28;20039;-76
2022/03/11 01:37:35;;;;;;;34.85;21.15;;;;;;;4.16;61.75;99574.75;5049290;28;20017;-76
2022/03/11 01:40:01;;;;;;;35.22;20.80;;;;;;;4.14;61.55;99578.59;5047116;28;20028;-76
2022/03/11 01:42:26;;;;;;;38.03;20.88;;;;;;;4.12;61.83;99584.06;5048819;28;20036;-76
2022/03/11 01:44:55;;;;;;;34.75;19.92;;;;;;;4.09;61.92;99573.88;5047367;28;20033;-76
2022/03/11 01:47:20;;;;;;;33.70;20.10;;;;;;;4.08;61.77;99585.44;5046060;28;20588;-76
2022/03/11 01:49:46;;;;;;;33.88;21.65;;;;;;;4.02;61.61;99580.91;5051485;28;20027;-76
2022/03/11 01:52:12;;;;;;;32.72;20.05;;;;;;;4.06;61.70;99574.25;5050799;28;20028;-76
2022/03/11 01:54:41;;;;;;;31.10;18.45;;;;;;;3.99;61.81;99570.72;5050634;28;20021;-76
2022/03/11 01:57:07;;;;;;;30.25;18.88;;;;;;;4.02;61.82;99578.25;5050406;28;20442;-76
2022/03/11 01:59:32;;;;;;;33.28;19.95;;;;;;;4.04;61.81;99578.09;5048633;28;20021;-76
2022/03/11 02:01:58;;;;;;;32.47;19.77;;;;;;;3.99;61.35;99575.19;5031804;28;20048;-76
2022/03/11 02:04:23;;;;;;;34.33;18.95;;;;;;;3.99;61.74;99583.94;5051775;28;20139;-76
2022/03/11 02:06:49;;;;;;;31.80;19.95;;;;;;;3.93;61.60;99573.31;5050309;28;20028;-76
2022/03/11 02:09:14;;;;;;;32.28;19.15;;;;;;;3.94;61.54;99574.94;5048776;28;20468;-76
2022/03/11 02:11:40;;;;;;;32.95;19.35;;;;;;;3.83;61.66;99563.03;5049957;28;20115;-76
2022/03/11 02:14:05;;;;;;;33.45;18.90;;;;;;;3.70;61.38;99542.59;5049174;28;20033;-77
2022/03/11 02:16:33;;;;;;;31.85;18.58;;;;;;;3.81;61.56;99562.41;5032104;28;20029;-76
2022/03/11 02:18:59;;;;;;;32.63;18.90;;;;;;;3.82;61.39;99556.13;5047638;28;20025;-76
2022/03/11 02:21:27;;;;;;;31.48;17.73;;;;;;;3.81;61.75;99562.41;5046464;28;20064;-76
2022/03/11 02:23:54;;;;;;;32.92;19.00;;;;;;;3.81;62.04;99559.78;5045553;28;20021;-76
2022/03/11 02:26:22;;;;;;;29.20;17.10;;;;;;;3.76;61.69;99557.69;5043176;28;20035;-76
2022/03/11 02:28:50;;;;;;;34.00;19.92;;;;;;;3.69;61.98;99554.16;5029061;28;20033;-76
2022/03/11 02:31:18;;;;;;;32.78;17.60;;;;;;;3.69;61.61;99558.66;5029128;28;20044;-76
2022/03/11 02:33:43;;;;;;;33.92;18.00;;;;;;;3.66;61.58;99554.56;5045858;28;20032;-76
2022/03/11 02:36:09;;;;;;;31.88;17.73;;;;;;;3.67;61.75;99555.34;5046932;28;20063;-76
2022/03/11 02:38:35;;;;;;;29.65;17.17;;;;;;;3.73;62.02;99567.81;5044355;28;20045;-76
2022/03/11 02:41:01;;;;;;;32.42;17.75;;;;;;;3.65;61.60;99560.00;5045844;28;20432;-76
2022/03/11 02:43:26;;;;;;;28.13;16.48;;;;;;;3.63;61.90;99552.28;5048501;28;20119;-76
2022/03/11 02:45:52;;;;;;;30.60;17.63;;;;;;;3.55;61.59;99539.19;5046124;28;20035;-76
2022/03/11 02:48:17;;;;;;;25.70;15.45;;;;;;;3.66;61.73;99562.47;5028555;28;20115;-76
2022/03/11 02:50:43;;;;;;;27.85;16.80;;;;;;;3.58;62.27;99549.38;5045550;28;20036;-76
2022/03/11 02:53:09;;;;;;;31.67;17.80;;;;;;;3.55;61.94;99549.75;5045015;28;20037;-76
2022/03/11 02:55:34;;;;;;;33.35;17.83;;;;;;;3.60;61.95;99554.47;5045806;28;20025;-76
2022/03/11 02:57:59;;;;;;;31.10;16.10;;;;;;;3.55;61.62;99538.38;5030861;28;20060;-76
2022/03/11 03:00:25;;;;;;;24.92;15.88;;;;;;;3.58;61.80;99551.22;5045652;28;20569;-76
2022/03/11 03:02:50;;;;;;;31.05;18.13;;;;;;;3.56;62.37;99550.59;5046046;28;20037;-76
2022/03/11 03:05:15;;;;;;;28.63;16.90;;;;;;;3.47;62.40;99539.28;5029325;28;20048;-76
2022/03/11 03:07:41;;;;;;;28.08;16.23;;;;;;;3.54;61.84;99552.56;5047390;28;20032;-76
2022/03/11 03:10:07;;;;;;;31.00;17.10;;;;;;;3.51;61.59;99551.13;5043303;28;20534;-76
2022/03/11 03:12:32;;;;;;;28.35;17.08;;;;;;;3.44;61.70;99530.94;5044738;28;20033;-76
2022/03/11 03:14:58;;;;;;;29.27;16.45;;;;;;;3.41;61.24;99537.41;5044878;28;20037;-76
2022/03/11 03:17:23;;;;;;;28.60;17.25;;;;;;;3.42;61.47;99533.78;5050496;28;20495;-76
2022/03/11 03:19:49;;;;;;;30.55;16.70;;;;;;;3.43;61.53;99538.03;5032806;28;20520;-76
2022/03/11 03:22:14;;;;;;;30.80;17.35;;;;;;;3.40;61.36;99535.78;5049336;28;20407;-76
2022/03/11 03:24:40;;;;;;;29.33;18.13;;;;;;;3.37;61.46;99524.75;5050577;28;20040;-76
2022/03/11 03:27:05;;;;;;;25.33;16.58;;;;;;;3.38;61.53;99532.53;5048741;28;20056;-76
2022/03/11 03:29:31;;;;;;;30.02;17.17;;;;;;;3.33;61.67;99531.41;5049762;28;20036;-76
2022/03/11 03:31:58;;;;;;;24.50;15.48;;;;;;;3.33;61.70;99534.88;5049887;28;20503;-76
2022/03/11 03:34:35;;;;;;;33.35;17.52;;;;;;;3.30;62.06;99540.53;5032271;28;20086;-76
2022/03/11 03:37:07;;;;;;;28.33;17.65;;;;;;;3.26;61.88;99526.06;5051411;28;20064;-76
2022/03/11 03:39:37;;;;;;;28.88;16.33;;;;;;;3.29;61.79;99532.81;5048927;28;20888;-76
2022/03/11 03:42:03;;;;;;;29.83;17.38;;;;;;;3.28;61.65;99531.97;5048670;28;20033;-76
2022/03/11 03:44:28;;;;;;;29.23;16.33;;;;;;;3.24;61.61;99532.53;5050370;28;20163;-76
2022/03/11 03:46:54;;;;;;;24.92;16.05;;;;;;;3.22;61.51;99532.72;5048837;28;20576;-76
2022/03/11 03:49:19;;;;;;;31.15;16.63;;;;;;;3.20;61.76;99533.91;5050446;28;20029;-76
2022/03/11 03:51:45;;;;;;;28.50;16.45;;;;;;;3.19;61.38;99524.38;5045527;28;20036;-76
2022/03/11 03:54:10;;;;;;;33.45;18.02;;;;;;;3.10;61.58;99513.13;5051352;28;20040;-76
2022/03/11 03:56:37;;;;;;;30.17;16.33;;;;;;;3.13;62.04;99525.91;5049651;28;20118;-76
2022/03/11 03:59:04;;;;;;;28.05;16.73;;;;;;;3.09;62.09;99516.72;5047950;28;20049;-76
2022/03/11 04:01:35;;;;;;;25.50;15.68;;;;;;;3.09;61.68;99524.66;5050849;28;20040;-76
2022/03/11 04:04:01;;;;;;;26.00;16.52;;;;;;;3.01;61.55;99503.66;5053977;28;20032;-76
2022/03/11 04:06:28;;;;;;;28.50;17.33;;;;;;;2.99;61.73;99506.47;5049330;28;20028;-76
2022/03/11 04:08:54;;;;;;;27.45;16.45;;;;;;;2.96;62.00;99509.47;5031315;28;20060;-76
2022/03/11 04:11:20;;;;;;;26.27;16.25;;;;;;;3.00;61.55;99512.56;5049777;28;20033;-76
2022/03/11 04:13:45;;;;;;;24.33;15.23;;;;;;;2.89;61.60;99492.75;5070263;28;20041;-76
2022/03/11 04:16:10;;;;;;;25.15;15.85;;;;;;;2.94;62.01;99498.31;5032291;28;20085;-76
2022/03/11 04:18:35;;;;;;;25.42;16.35;;;;;;;2.95;62.26;99507.00;5048501;28;20033;-76
2022/03/11 04:21:01;;;;;;;26.67;15.25;;;;;;;2.94;61.82;99503.59;5053349;28;20588;-76
2022/03/11 04:23:26;;;;;;;32.13;18.58;;;;;;;2.89;62.00;99503.31;5050560;28;20040;-76
2022/03/11 04:25:51;;;;;;;27.35;17.00;;;;;;;2.86;62.25;99494.94;5050580;28;20039;-76
2022/03/11 04:28:17;;;;;;;27.08;15.65;;;;;;;2.86;62.29;99501.03;5052010;28;20036;-76
2022/03/11 04:30:42;;;;;;;28.10;16.17;;;;;;;2.85;62.41;99496.75;5051167;28;20378;-76
2022/03/11 04:33:07;;;;;;;28.17;15.13;;;;;;;2.82;61.76;99491.03;5050893;28;20103;-76
2022/03/11 04:35:33;;;;;;;25.80;16.90;;;;;;;2.80;62.32;99488.56;5052872;28;20035;-76
2022/03/11 04:37:59;;;;;;;27.35;16.65;;;;;;;2.75;61.73;99492.78;5033858;28;20086;-76
2022/03/11 04:40:24;;;;;;;27.80;16.65;;;;;;;2.71;61.77;99473.06;5031982;28;20040;-76
2022/03/11 04:42:49;;;;;;;24.40;15.75;;;;;;;2.73;61.85;99490.31;5031719;28;20069;-76
2022/03/11 04:45:14;;;;;;;27.35;16.30;;;;;;;2.70;62.19;99488.06;5045538;28;20040;-76
2022/03/11 04:47:40;;;;;;;25.40;15.02;;;;;;;2.64;62.30;99478.25;5048160;28;20490;-76
2022/03/11 04:50:06;;;;;;;27.20;16.77;;;;;;;2.66;62.45;99488.59;5051090;28;20079;-76
2022/03/11 04:52:33;;;;;;;28.63;15.40;;;;;;;2.64;62.35;99490.59;5029898;28;20552;-76
2022/03/11 04:54:58;;;;;;;28.77;15.23;;;;;;;2.53;62.31;99475.25;5046108;28;20039;-76
2022/03/11 04:57:23;;;;;;;31.80;16.20;;;;;;;2.59;62.62;99482.41;5064511;28;20466;-76
2022/03/11 04:59:48;;;;;;;26.90;15.93;;;;;;;2.60;62.64;99486.69;5050708;28;20036;-76
2022/03/11 05:02:23;;;;;;;28.67;16.67;;;;;;;2.52;62.36;99471.78;5047168;28;20617;-75
2022/03/11 05:04:49;;;;;;;28.90;16.75;;;;;;;2.51;62.03;99464.06;5050876;28;20032;-76
2022/03/11 05:07:14;;;;;;;25.40;15.10;;;;;;;2.51;62.39;99478.03;5050331;28;20585;-75
2022/03/11 05:09:39;;;;;;;27.67;16.20;;;;;;;2.45;62.23;99462.97;5048715;28;20037;-76
2022/03/11 05:12:05;;;;;;;26.08;15.80;;;;;;;2.44;62.80;99471.88;5049221;28;20028;-75
2022/03/11 05:14:30;;;;;;;24.15;14.65;;;;;;;2.46;62.41;99477.78;5051210;28;20053;-76
2022/03/11 05:16:55;;;;;;;25.20;15.95;;;;;;;2.43;62.16;99485.22;5031245;28;20025;-76
2022/03/11 05:19:24;;;;;;;26.73;15.82;;;;;;;2.41;62.19;99481.94;5049700;28;20039;-76
2022/03/11 05:21:49;;;;;;;25.30;16.60;;;;;;;2.34;62.90;99473.94;5049819;28;20048;-75
2022/03/11 05:24:14;;;;;;;24.20;14.65;;;;;;;2.27;62.85;99471.22;5056626;28;20646;-76
2022/03/11 05:26:39;;;;;;;27.42;14.30;;;;;;;2.31;62.84;99473.50;5050434;28;20029;-76
2022/03/11 05:29:05;;;;;;;26.85;16.83;;;;;;;2.29;62.38;99477.13;5049543;28;20033;-76
2022/03/11 05:31:30;;;;;;;21.73;13.55;;;;;;;2.21;63.03;99474.56;5045110;28;20119;-76
2022/03/11 05:33:56;;;;;;;23.67;15.15;;;;;;;2.14;62.69;99468.38;5042279;28;20041;-76
2022/03/11 05:36:22;;;;;;;22.42;13.38;;;;;;;2.19;62.81;99479.19;5044354;28;20040;-76
2022/03/11 05:38:47;;;;;;;22.60;13.10;;;;;;;2.24;62.46;99481.31;5049703;28;20523;-76
2022/03/11 05:41:13;;;;;;;23.08;13.77;;;;;;;2.26;62.20;99484.56;5051234;28;20041;-76
2022/03/11 05:43:39;;;;;;;27.30;14.90;;;;;;;2.24;62.34;99478.66;5051515;28;20021;-76
2022/03/11 05:46:04;;;;;;;23.38;14.25;;;;;;;2.19;61.98;99473.94;5033789;28;20025;-76
2022/03/11 05:48:30;;;;;;;24.33;14.25;;;;;;;2.16;62.14;99476.13;5050117;28;20040;-76
2022/03/11 05:50:55;;;;;;;23.38;13.32;;;;;;;2.22;62.07;99492.03;5047765;28;20029;-76
2022/03/11 05:53:21;;;;;;;26.52;15.20;;;;;;;2.24;62.07;99492.66;5059643;28;20041;-76
2022/03/11 05:55:46;;;;;;;24.98;13.63;;;;;;;2.21;62.23;99489.53;5052015;28;20064;-76
2022/03/11 05:58:12;;;;;;;26.77;14.80;;;;;;;2.21;62.36;99487.75;5050285;28;20029;-76
2022/03/11 06:00:37;;;;;;;26.50;13.73;;;;;;;2.18;62.27;99489.91;5046081;28;20091;-76
2022/03/11 06:03:02;;;;;;;22.52;13.80;;;;;;;2.20;62.30;99494.03;5048976;28;20037;-76
2022/03/11 06:05:28;;;;;;;23.75;14.05;;;;;;;2.17;62.32;99493.53;5050041;28;20039;-76
2022/03/11 06:07:53;;;;;;;23.25;13.68;;;;;;;2.18;62.48;99495.19;5050256;28;20189;-76
2022/03/11 06:10:18;;;;;;;21.33;13.63;;;;;;;2.15;62.07;99499.00;5049960;28;20533;-76
2022/03/11 06:12:44;;;;;;;21.20;12.70;;;;;;;2.18;62.51;99495.19;5050389;28;20150;-76
2022/03/11 06:15:11;;;;;;;22.70;12.05;;;;;;;2.16;62.25;99497.97;5057912;28;20037;-76
2022/03/11 06:17:36;;;;;;;20.73;13.07;;;;;;;2.14;62.55;99493.91;5033117;28;20098;-76
2022/03/11 06:20:02;;;;;;;22.63;13.30;;;;;;;2.13;62.25;99493.09;5049741;28;20021;-76
2022/03/11 06:22:28;;;;;;;20.85;12.05;;;;;;;2.15;61.97;99491.09;5061381;28;20032;-76
2022/03/11 06:24:53;;;;;;;24.85;12.32;;;;;;;2.16;62.15;99499.81;5036601;28;20037;-76
2022/03/11 06:27:18;;;;;;;18.20;11.32;;;;;;;2.06;62.04;99480.81;5048454;28;20043;-76
2022/03/11 06:29:44;;;;;;;20.77;11.85;;;;;;;2.20;62.28;99495.81;5049177;28;20017;-75
2022/03/11 06:32:09;;;;;;;22.60;12.27;;;;;;;2.19;62.65;99491.53;5056269;28;20024;-76
2022/03/11 06:34:35;;;;;;;20.65;12.40;;;;;;;2.21;62.50;99502.72;5049892;28;20036;-76
2022/03/11 06:37:00;;;;;;;21.02;12.07;;;;;;;2.20;62.58;99506.34;5048461;28;20080;-76
2022/03/11 06:39:25;;;;;;;18.63;12.32;;;;;;;2.15;61.75;99498.16;5048514;28;20121;-76
2022/03/11 06:41:51;;;;;;;20.65;11.50;;;;;;;2.20;62.14;99506.34;5049740;28;20091;-76
2022/03/11 06:44:17;;;;;;;22.17;11.00;;;;;;;2.14;62.04;99497.34;5048617;28;20089;-76
2022/03/11 06:46:43;;;;;;;27.65;13.20;;;;;;;2.20;62.22;99511.63;5048397;28;20554;-76
2022/03/11 06:49:09;;;;;;;21.88;12.98;;;;;;;2.19;61.93;99508.16;5041000;28;20017;-76
2022/03/11 06:51:35;;;;;;;20.23;13.00;;;;;;;2.21;61.97;99516.69;5040498;28;20041;-76
2022/03/11 06:54:00;;;;;;;18.17;11.15;;;;;;;2.20;61.99;99511.63;5053657;28;20028;-76
2022/03/11 06:56:26;;;;;;;17.35;10.57;;;;;;;2.22;61.81;99509.63;5053659;28;20029;-76
2022/03/11 06:58:51;;;;;;;16.88;11.23;;;;;;;2.20;62.07;99498.47;5034757;28;20032;-76
2022/03/11 07:01:18;;;;;;;16.30;11.13;;;;;;;2.24;62.21;99505.00;5039574;28;20041;-76
2022/03/11 07:03:43;;;;;;;17.50;10.82;;;;;;;2.29;61.77;99514.00;5053554;28;20099;-76
2022/03/11 07:06:08;;;;;;;18.77;11.23;;;;;;;2.26;61.86;99509.09;5044703;28;20124;-76
2022/03/11 07:08:34;;;;;;;16.90;10.60;;;;;;;2.31;61.92;99502.47;5037221;28;20037;-76
2022/03/11 07:10:59;;;;;;;20.02;11.60;;;;;;;2.32;61.49;99501.44;5054715;28;20021;-76
2022/03/11 07:13:25;;;;;;;18.92;11.30;;;;;;;2.25;62.05;99485.56;5053025;28;20033;-76
2022/03/11 07:15:50;;;;;;;18.08;10.23;;;;;;;2.35;61.56;99495.84;5054586;28;20029;-76
2022/03/11 07:18:15;;;;;;;16.15;10.68;;;;;;;2.38;61.56;99495.50;5053359;28;20060;-76
2022/03/11 07:20:41;;;;;;;18.77;10.32;;;;;;;2.46;61.38;99514.66;5020795;28;20024;-76
2022/03/11 07:23:06;;;;;;;16.73;10.20;;;;;;;2.44;61.77;99506.13;5063029;28;20376;-76
2022/03/11 07:25:31;;;;;;;19.10;11.38;;;;;;;2.45;61.64;99502.47;5054295;28;20025;-76
2022/03/11 07:27:56;;;;;;;17.58;10.70;;;;;;;2.40;61.25;99489.03;5040955;28;20040;-76
2022/03/11 07:30:22;;;;;;;19.48;10.65;;;;;;;2.51;61.30;99504.38;5033186;28;20029;-76
2022/03/11 07:32:50;;;;;;;16.88;10.30;;;;;;;2.55;61.44;99497.78;5050608;28;20051;-76
2022/03/11 07:35:15;;;;;;;19.52;9.63;;;;;;;2.56;61.48;99495.94;5052564;28;20040;-76
2022/03/11 07:37:40;;;;;;;17.15;10.85;;;;;;;2.57;61.05;99495.78;5051834;28;20029;-76
2022/03/11 07:40:07;;;;;;;16.25;10.02;;;;;;;2.60;61.11;99486.69;5058122;28;20522;-76
2022/03/11 07:42:33;;;;;;;16.83;9.93;;;;;;;2.60;60.93;99490.13;5036633;28;20476;-76
2022/03/11 07:44:59;;;;;;;18.75;10.40;;;;;;;2.61;61.22;99490.94;5053895;28;20104;-76
2022/03/11 07:47:25;;;;;;;18.88;10.05;;;;;;;2.68;60.89;99491.88;5019293;28;20033;-77
2022/03/11 07:49:50;;;;;;;16.60;9.65;;;;;;;2.63;60.94;99479.22;5053613;28;20450;-76
2022/03/11 07:52:15;;;;;;;15.25;9.02;;;;;;;2.73;61.18;99492.16;5051907;28;20055;-75
2022/03/11 07:54:42;;;;;;;16.63;9.98;;;;;;;2.76;60.66;99491.75;5057464;28;20467;-76
2022/03/11 07:57:07;;;;;;;16.13;9.05;;;;;;;2.70;61.10;99484.59;5056625;28;20388;-76
2022/03/11 07:59:33;;;;;;;18.77;9.73;;;;;;;2.79;60.56;99489.59;5052711;28;20033;-76
2022/03/11 08:01:59;;;;;;;16.35;10.35;;;;;;;2.81;61.20;99486.78;5042347;28;20061;-76
2022/03/11 08:04:25;;;;;;;15.88;9.60;;;;;;;2.85;60.69;99485.41;5034103;28;20477;-76
2022/03/11 08:06:51;;;;;;;12.73;8.82;;;;;;;2.79;60.32;99476.41;5038395;28;20082;-76
2022/03/11 08:09:16;;;;;;;15.85;10.23;;;;;;;2.89;60.58;99484.03;5035565;28;20480;-76
2022/03/11 08:11:42;;;;;;;13.48;9.45;;;;;;;2.89;60.38;99481.38;5050220;28;20067;-76
2022/03/11 08:14:07;;;;;;;14.90;9.70;;;;;;;2.85;60.30;99478.31;5043215;28;20040;-76
2022/03/11 08:16:32;;;;;;;19.33;9.85;;;;;;;2.96;59.89;99479.66;5045677;28;20040;-76
2022/03/11 08:18:58;;;;;;;20.20;9.75;;;;;;;2.99;60.14;99484.56;5050942;28;20067;-76
2022/03/11 08:21:24;;;;;;;12.77;8.48;;;;;;;2.86;59.93;99458.84;5056919;28;20400;-76
2022/03/11 08:23:49;;;;;;;15.32;10.27;;;;;;;2.93;59.67;99458.91;5038265;28;20036;-75
2022/03/11 08:26:14;;;;;;;15.20;10.00;;;;;;;3.08;59.23;99474.75;5055115;28;20036;-76
2022/03/11 08:28:40;;;;;;;15.25;9.73;;;;;;;3.08;59.48;99472.09;5046175;28;20040;-76
2022/03/11 08:31:05;;;;;;;13.13;8.98;;;;;;;3.12;59.29;99468.09;5046694;28;20025;-76
2022/03/11 08:33:32;;;;;;;17.02;9.60;;;;;;;3.05;58.80;99452.19;5059178;28;20028;-76
2022/03/11 08:35:57;;;;;;;16.73;10.00;;;;;;;3.17;58.72;99471.00;5037360;28;20028;-76
2022/03/11 08:38:23;;;;;;;13.75;8.20;;;;;;;3.19;59.06;99467.13;5044103;28;20040;-76
2022/03/11 08:40:48;;;;;;;15.00;8.95;;;;;;;3.22;58.37;99464.16;5054140;28;20087;-76
2022/03/11 08:43:14;;;;;;;13.63;8.90;;;;;;;3.24;58.57;99462.13;5055947;28;20033;-77
2022/03/11 08:45:39;;;;;;;19.02;9.40;;;;;;;3.21;59.00;99456.44;5052211;28;20025;-76
2022/03/11 08:48:05;;;;;;;15.20;8.98;;;;;;;3.22;58.50;99443.03;5030727;28;20167;-76
2022/03/11 08:50:31;;;;;;;12.73;8.30;;;;;;;3.35;58.52;99460.81;5055526;28;20027;-76
2022/03/11 08:52:56;;;;;;;14.77;8.77;;;;;;;3.38;58.55;99461.28;5057161;28;20418;-76
2022/03/11 08:55:22;;;;;;;14.75;8.95;;;;;;;3.40;58.49;99458.44;5050165;28;20044;-76
2022/03/11 08:57:51;;;;;;;15.68;9.77;;;;;;;3.43;57.76;99456.25;5050600;28;20045;-76
2022/03/11 09:00:19;;;;;;;16.90;9.63;;;;;;;3.43;57.65;99458.09;5052630;28;20116;-76
2022/03/11 09:02:44;;;;;;;13.70;8.27;;;;;;;3.51;57.47;99455.31;5033684;28;20044;-76
2022/03/11 09:05:10;;;;;;;17.80;8.65;;;;;;;3.53;57.32;99448.03;5055450;28;20412;-76
2022/03/11 09:07:35;;;;;;;13.30;8.05;;;;;;;3.56;57.49;99445.03;5045106;28;20040;-76
2022/03/11 09:10:04;;;;;;;13.85;7.82;;;;;;;3.59;57.39;99436.72;5054673;28;20024;-76
2022/03/11 09:12:29;;;;;;;14.98;9.20;;;;;;;3.64;57.17;99440.44;5042537;28;20037;-76
2022/03/11 09:14:54;;;;;;;14.60;8.52;;;;;;;3.62;57.12;99426.59;5042109;28;20087;-76
2022/03/11 09:17:20;;;;;;;15.77;8.85;;;;;;;3.66;56.59;99427.84;5064219;28;20025;-76
2022/03/11 09:19:45;;;;;;;14.40;8.45;;;;;;;3.66;56.75;99414.66;5054684;28;20454;-76
2022/03/11 09:22:14;;;;;;;14.40;7.90;;;;;;;3.77;56.45;99426.53;5053302;28;20116;-75
2022/03/11 09:24:41;;;;;;;19.67;8.68;;;;;;;3.81;56.10;99435.69;5040011;28;20124;-76
2022/03/11 09:27:07;;;;;;;15.35;8.00;;;;;;;3.82;56.04;99428.59;5049958;28;20530;-76
2022/03/11 09:29:33;;;;;;;11.95;8.02;;;;;;;3.88;55.30;99433.09;5053425;28;20104;-76
2022/03/11 09:31:58;;;;;;;11.82;8.50;;;;;;;3.89;55.91;99426.81;5052208;28;20132;-76
2022/03/11 09:34:24;;;;;;;11.80;8.23;;;;;;;3.93;55.28;99428.06;5054372;28;20083;-76
2022/03/11 09:36:52;;;;;;;17.75;9.27;;;;;;;3.95;55.14;99424.22;5051535;28;20083;-76
2022/03/11 09:39:18;;;;;;;14.52;7.82;;;;;;;3.97;54.33;99431.97;5051952;28;20395;-76
2022/03/11 09:41:45;;;;;;;14.32;8.10;;;;;;;4.03;55.92;99425.91;5049721;28;20045;-77
2022/03/11 09:44:12;;;;;;;13.63;8.48;;;;;;;4.05;55.69;99427.34;5051245;28;20116;-77
2022/03/11 09:46:40;;;;;;;12.45;8.05;;;;;;;4.10;54.28;99426.78;5049909;28;20039;-76
2022/03/11 09:49:05;;;;;;;14.32;8.40;;;;;;;4.06;54.61;99405.22;5056966;28;20501;-76
2022/03/11 09:51:33;;;;;;;13.40;7.45;;;;;;;4.13;55.06;99408.69;5050163;28;20120;-76
2022/03/11 09:53:59;;;;;;;10.95;8.13;;;;;;;4.19;53.66;99413.22;5049899;28;20052;-76
2022/03/11 09:56:24;;;;;;;12.98;8.00;;;;;;;4.24;54.40;99415.25;5049929;28;20433;-75
2022/03/11 09:58:50;;;;;;;9.27;7.03;;;;;;;4.23;55.66;99403.91;5046168;28;20083;-76
2022/03/11 10:01:15;;;;;;;18.40;8.32;;;;;;;4.36;54.75;99422.47;5051992;28;20586;-76
2022/03/11 10:03:40;;;;;;;13.18;8.20;;;;;;;4.38;54.25;99409.06;5056402;28;20031;-76
2022/03/11 10:06:05;;;;;;;13.88;7.82;;;;;;;4.44;53.97;99411.75;5033388;28;20028;-76
2022/03/11 10:08:33;;;;;;;15.75;7.65;;;;;;;4.50;54.69;99404.84;5033120;28;20029;-76
2022/03/11 10:11:26;;;;;;;12.05;7.72;;;;;;;4.52;53.98;99401.00;5043832;28;20060;-76
2022/03/11 10:13:52;;;;;;;11.45;7.53;;;;;;;4.60;55.11;99396.56;5047012;28;20124;-76
2022/03/11 10:16:27;;;;;;;17.50;7.75;;;;;;;4.65;55.32;99402.09;5038124;28;20056;-76
2022/03/11 10:18:58;;;;;;;21.73;9.35;;;;;;;4.72;55.07;99397.66;5050682;28;20043;-76
2022/03/11 10:21:38;;;;;;;13.65;8.38;;;;;;;4.76;53.56;99391.75;5063788;28;20742;-76
2022/03/11 10:24:06;;;;;;;14.27;9.35;;;;;;;4.80;54.06;99392.19;5046664;28;20079;-76
2022/03/11 10:26:36;;;;;;;12.88;8.18;;;;;;;4.91;53.02;99399.53;5038096;28;20032;-76
2022/03/11 10:29:04;;;;;;;15.10;8.27;;;;;;;4.87;54.07;99372.66;5057939;28;20029;-76
2022/03/11 10:31:30;;;;;;;11.82;7.80;;;;;;;5.02;52.90;99391.81;5053336;28;20444;-76
2022/03/11 10:34:12;;;;;;;12.77;8.30;;;;;;;5.05;53.57;99385.31;5056849;28;20056;-76
2022/03/11 10:36:45;;;;;;;13.48;8.55;;;;;;;5.12;53.78;99383.53;5055455;28;20028;-76
2022/03/11 10:39:12;;;;;;;13.10;8.20;;;;;;;5.16;52.74;99379.44;5058914;28;20029;-76
2022/03/11 10:41:37;;;;;;;13.10;8.60;;;;;;;5.18;53.21;99378.25;5046249;28;20387;-76
2022/03/11 10:44:04;;;;;;;11.80;7.72;;;;;;;5.11;53.86;99366.81;5060043;28;20097;-76
2022/03/11 10:46:29;;;;;;;14.63;8.75;;;;;;;5.18;52.61;99369.47;5055118;28;20032;-76
2022/03/11 10:48:56;;;;;;;15.57;8.70;;;;;;;5.22;52.83;99383.97;5052678;28;20086;-76
2022/03/11 10:51:27;;;;;;;15.10;9.02;;;;;;;5.11;53.04;99364.19;5054146;28;20112;-76
2022/03/11 10:53:55;;;;;;;15.23;7.65;;;;;;;5.24;53.40;99384.56;5052416;28;20061;-76
2022/03/11 10:56:29;;;;;;;15.25;8.77;;;;;;;5.16;49.98;99376.81;5046952;28;20072;-76
2022/03/11 10:58:56;;;;;;;14.82;7.50;;;;;;;5.21;51.41;99364.63;5056535;28;20392;-76
2022/03/11 11:01:39;;;;;;;15.10;7.78;;;;;;;5.20;52.23;99368.28;5054733;28;20043;-76
2022/03/11 11:04:07;;;;;;;14.52;8.02;;;;;;;5.20;52.52;99362.97;5055056;28;20036;-76
2022/03/11 11:06:33;;;;;;;9.57;6.88;;;;;;;5.26;53.64;99374.59;5060555;28;20093;-76
2022/03/11 11:08:59;;;;;;;13.43;8.07;;;;;;;5.30;53.22;99374.00;5053863;28;20025;-76
2022/03/11 11:11:25;;;;;;;13.40;8.10;;;;;;;5.30;53.84;99367.88;5053010;28;20404;-76
2022/03/11 11:13:51;;;;;;;11.82;6.70;;;;;;;5.35;53.60;99380.53;5053775;28;20025;-76
2022/03/11 11:16:19;;;;;;;12.48;8.13;;;;;;;5.34;52.97;99358.53;5054173;28;20163;-76
2022/03/11 11:18:46;;;;;;;12.73;7.60;;;;;;;5.37;53.40;99366.06;5048871;28;20033;-76
2022/03/11 11:21:12;;;;;;;12.05;8.27;;;;;;;5.45;52.82;99370.34;5051665;28;20108;-76